Time;durP1;ratioP1;P1;durP2;ratioP2;P2;SDS_P1;SDS_P2;PMS_P1;PMS_P2;Temp;Humidity;BMP_temperature;BMP_pressure;BME280_temperature;BME280_humidity;BME280_pressure;Samples;Min_cycle;Max_cycle;Signal;HPM_P1;HPM_P2
2022/12/01 00:01:00;;;;;;;6.40;2.50;;;;;;;-0.01;64.98;101655.47;1783172;80;21033;-70
2022/12/01 00:03:30;;;;;;;4.70;2.40;;;;;;;-0.01;64.95;101647.68;1780774;79;21570;-71
2022/12/01 00:06:08;;;;;;;4.83;2.58;;;;;;;-0.04;64.92;101649.89;1782523;80;21088;-70
2022/12/01 00:08:36;;;;;;;4.08;2.10;;;;;;;-0.03;64.91;101650.75;1772870;80;21081;-71
2022/12/01 00:11:10;;;;;;;4.40;2.30;;;;;;;-0.04;64.86;101647.73;1759600;81;22605;-71
2022/12/01 00:13:37;;;;;;;4.62;2.40;;;;;;;-0.10;64.79;101647.37;1776641;80;21003;-71
2022/12/01 00:16:15;;;;;;;4.47;1.92;;;;;;;-0.11;64.76;101644.37;1780925;80;21045;-71
2022/12/01 00:18:42;;;;;;;3.75;2.45;;;;;;;-0.10;64.69;101647.37;1752098;81;21511;-70
2022/12/01 00:21:16;;;;;;;5.53;2.52;;;;;;;-0.12;64.63;101645.69;1756644;81;21241;-71
2022/12/01 00:23:47;;;;;;;6.17;2.58;;;;;;;-0.12;64.59;101645.69;1742849;81;21972;-71
2022/12/01 00:26:15;;;;;;;5.37;2.85;;;;;;;-0.13;64.48;101656.52;1761847;81;21406;-71
2022/12/01 00:28:41;;;;;;;5.28;2.80;;;;;;;-0.16;64.41;101650.09;1770105;81;21054;-71
2022/12/01 00:31:10;;;;;;;5.42;2.70;;;;;;;-0.16;64.36;101655.72;1758028;81;20952;-71
2022/12/01 00:33:37;;;;;;;5.12;2.50;;;;;;;-0.15;64.32;101653.09;1758190;81;21517;-71
2022/12/01 00:36:05;;;;;;;5.60;2.60;;;;;;;-0.15;64.23;101654.40;1757509;79;21910;-71
2022/12/01 00:38:32;;;;;;;5.87;2.45;;;;;;;-0.17;64.25;101654.86;1758875;81;21004;-71
2022/12/01 00:40:58;;;;;;;4.80;2.50;;;;;;;-0.18;64.27;101656.19;1763596;81;21078;-69
2022/12/01 00:43:25;;;;;;;7.95;2.60;;;;;;;-0.20;64.29;101660.52;1705520;82;21047;-72
2022/12/01 00:45:52;;;;;;;3.87;2.10;;;;;;;-0.21;64.30;101659.66;1717603;82;20993;-69
2022/12/01 00:48:19;;;;;;;4.90;2.25;;;;;;;-0.22;64.24;101655.36;1733926;82;21922;-70
2022/12/01 00:50:46;;;;;;;4.58;2.47;;;;;;;-0.22;64.12;101657.95;1739429;81;21034;-69
2022/12/01 00:53:12;;;;;;;9.20;2.60;;;;;;;-0.25;64.18;101660.61;1741332;82;21040;-70
2022/12/01 00:55:39;;;;;;;5.20;2.52;;;;;;;-0.25;64.13;101652.81;1740715;82;20946;-70
2022/12/01 00:58:06;;;;;;;5.62;2.60;;;;;;;-0.26;64.08;101658.89;1718003;82;21017;-71
2022/12/01 01:00:33;;;;;;;6.80;2.62;;;;;;;-0.26;64.02;101655.44;1737072;82;21919;-70
2022/12/01 01:03:00;;;;;;;7.00;2.90;;;;;;;-0.25;63.99;101653.25;1747878;82;21046;-70
2022/12/01 01:05:26;;;;;;;4.83;2.37;;;;;;;-0.27;63.96;101647.23;1703774;82;20965;-71
2022/12/01 01:07:53;;;;;;;4.72;2.40;;;;;;;-0.27;63.95;101644.64;1710400;83;20934;-70
2022/12/01 01:10:20;;;;;;;6.03;2.52;;;;;;;-0.30;63.93;101641.62;1698691;84;21052;-70
2022/12/01 01:12:47;;;;;;;5.35;2.40;;;;;;;-0.31;63.91;101645.10;1718572;82;22351;-70
2022/12/01 01:15:13;;;;;;;5.35;2.15;;;;;;;-0.32;63.85;101644.69;1710128;83;21083;-69
2022/12/01 01:17:40;;;;;;;5.65;2.20;;;;;;;-0.34;63.83;101646.45;1707511;82;21050;-70
2022/12/01 01:20:09;;;;;;;5.40;2.12;;;;;;;-0.34;63.81;101645.16;1735936;82;20950;-69
2022/12/01 01:22:36;;;;;;;5.17;2.17;;;;;;;-0.36;63.77;101646.92;1700527;83;21034;-71
2022/12/01 01:25:03;;;;;;;5.28;2.17;;;;;;;-0.35;63.71;101648.64;1714583;83;22177;-69
2022/12/01 01:27:31;;;;;;;4.78;2.15;;;;;;;-0.37;63.71;101646.06;1701439;83;21059;-69
2022/12/01 01:29:57;;;;;;;4.62;2.20;;;;;;;-0.39;63.74;101637.41;1686534;83;21026;-69
2022/12/01 01:32:24;;;;;;;4.33;2.05;;;;;;;-0.40;63.67;101641.34;1747585;82;21003;-71
2022/12/01 01:34:50;;;;;;;4.40;2.25;;;;;;;-0.39;63.65;101641.75;1728006;82;21038;-69
2022/12/01 01:37:17;;;;;;;5.62;2.42;;;;;;;-0.41;63.63;101634.44;1722179;82;22325;-69
2022/12/01 01:39:43;;;;;;;3.17;2.02;;;;;;;-0.41;63.57;101643.08;1732759;81;21038;-69
2022/12/01 01:42:13;;;;;;;5.65;2.27;;;;;;;-0.41;63.57;101637.88;1740631;82;21047;-70
2022/12/01 01:44:56;;;;;;;5.17;2.30;;;;;;;-0.41;63.52;101644.81;1723443;81;21547;-69
2022/12/01 01:47:34;;;;;;;6.62;2.75;;;;;;;-0.43;63.45;101641.39;1767646;80;21054;-69
2022/12/01 01:50:08;;;;;;;3.65;2.08;;;;;;;-0.44;63.47;101637.08;1768128;81;21839;-70
2022/12/01 01:52:37;;;;;;;5.92;2.37;;;;;;;-0.44;63.40;101638.38;1766264;79;21130;-70
2022/12/01 01:55:04;;;;;;;4.33;2.37;;;;;;;-0.45;63.39;101628.88;1766292;80;20999;-71
2022/12/01 01:57:32;;;;;;;7.47;2.30;;;;;;;-0.48;63.33;101627.19;1767081;81;21007;-70
2022/12/01 02:00:07;;;;;;;4.85;2.10;;;;;;;-0.49;63.26;101618.96;1739637;81;21019;-70
2022/12/01 02:02:39;;;;;;;6.78;2.10;;;;;;;-0.49;63.18;101619.40;1767061;80;22513;-70
2022/12/01 02:05:09;;;;;;;4.62;2.30;;;;;;;-0.48;63.15;101619.81;1766069;79;21506;-70
2022/12/01 02:07:38;;;;;;;5.03;2.10;;;;;;;-0.48;63.03;101626.30;1767572;80;21003;-74
2022/12/01 02:10:07;;;;;;;3.45;2.05;;;;;;;-0.48;63.01;101619.41;1739364;80;21463;-72
2022/12/01 02:12:59;;;;;;;3.72;2.05;;;;;;;-0.45;62.96;101627.58;1768582;81;21078;-69
2022/12/01 02:15:46;;;;;;;4.83;1.92;;;;;;;-0.48;62.91;101621.11;1764310;81;21866;-70
2022/12/01 02:18:53;;;;;;;5.70;2.20;;;;;;;-0.48;62.98;101620.70;1765912;80;21482;-69
2022/12/01 02:21:25;;;;;;;4.55;2.08;;;;;;;-0.50;62.93;101613.35;1768028;80;21115;-69
2022/12/01 02:24:21;;;;;;;4.73;2.03;;;;;;;-0.51;62.84;101613.37;1763814;79;21465;-69
2022/12/01 02:27:02;;;;;;;5.25;2.20;;;;;;;-0.51;62.61;101617.27;1737026;82;21168;-69
2022/12/01 02:29:44;;;;;;;4.35;2.05;;;;;;;-0.50;62.54;101619.84;1765864;81;21889;-70
2022/12/01 02:32:43;;;;;;;3.12;2.00;;;;;;;-0.50;62.45;101613.35;1767285;81;21028;-71
2022/12/01 02:35:41;;;;;;;4.80;1.80;;;;;;;-0.48;62.32;101610.33;1759748;81;21094;-71
2022/12/01 02:38:15;;;;;;;5.65;2.45;;;;;;;-0.48;62.27;101610.33;1762871;81;21072;-70
2022/12/01 02:40:50;;;;;;;5.08;2.30;;;;;;;-0.50;62.18;101610.76;1762199;81;21069;-69
2022/12/01 02:43:32;;;;;;;5.15;2.22;;;;;;;-0.51;62.09;101608.19;1755056;80;21933;-69
2022/12/01 02:46:15;;;;;;;4.40;1.95;;;;;;;-0.50;62.04;101604.71;1737244;80;21000;-69
2022/12/01 02:48:45;;;;;;;4.58;2.00;;;;;;;-0.50;61.97;101608.61;1745174;80;21020;-69
2022/12/01 02:51:22;;;;;;;3.50;2.00;;;;;;;-0.51;61.96;101612.94;1757474;81;21036;-69
2022/12/01 02:53:48;;;;;;;4.70;2.00;;;;;;;-0.51;61.97;101613.37;1749914;81;20997;-69
2022/12/01 02:56:19;;;;;;;3.05;1.50;;;;;;;-0.51;61.92;101612.08;1726621;80;21937;-71
2022/12/01 02:58:46;;;;;;;4.42;1.72;;;;;;;-0.52;61.86;101609.93;1779396;79;21055;-70
2022/12/01 03:01:36;;;;;;;3.05;1.72;;;;;;;-0.51;61.81;101605.59;1749742;80;21001;-69
2022/12/01 03:04:39;;;;;;;5.03;1.92;;;;;;;-0.49;61.70;101616.80;1755904;79;20996;-70
2022/12/01 03:07:46;;;;;;;4.42;2.00;;;;;;;-0.50;61.68;101609.91;1745015;79;21461;-70
2022/12/01 03:10:24;;;;;;;4.70;1.77;;;;;;;-0.51;61.57;101609.48;1768235;81;22411;-71
2022/12/01 03:13:43;;;;;;;4.92;2.47;;;;;;;-0.51;61.49;101618.57;1768049;81;21027;-70
2022/12/01 03:16:30;;;;;;;5.87;1.90;;;;;;;-0.51;61.50;101612.94;1762877;81;20952;-70
2022/12/01 03:19:00;;;;;;;6.08;2.15;;;;;;;-0.51;61.54;101606.89;1760558;81;20968;-70
2022/12/01 03:21:33;;;;;;;4.95;2.12;;;;;;;-0.53;61.58;101604.33;1771022;79;20983;-69
2022/12/01 03:24:05;;;;;;;5.22;1.60;;;;;;;-0.52;61.56;101602.14;1748051;80;22190;-68
2022/12/01 03:26:32;;;;;;;4.20;1.87;;;;;;;-0.53;61.54;101605.63;1748268;80;21491;-68
2022/12/01 03:29:05;;;;;;;4.15;1.90;;;;;;;-0.53;61.48;101608.66;1774650;80;20954;-69
2022/12/01 03:31:39;;;;;;;6.97;2.08;;;;;;;-0.53;61.48;101607.36;1755216;80;21468;-69
2022/12/01 03:34:17;;;;;;;4.37;2.30;;;;;;;-0.53;61.32;101602.17;1751965;81;20944;-69
2022/12/01 03:36:51;;;;;;;4.72;2.00;;;;;;;-0.53;61.23;101600.43;1746468;80;22459;-72
2022/12/01 03:39:22;;;;;;;4.95;2.30;;;;;;;-0.52;61.22;101594.80;1724321;81;20998;-68
2022/12/01 03:42:06;;;;;;;5.97;2.08;;;;;;;-0.52;61.17;101599.55;1756531;80;21378;-68
2022/12/01 03:44:37;;;;;;;5.62;2.27;;;;;;;-0.52;60.99;101603.88;1749932;80;21080;-69
2022/12/01 03:47:10;;;;;;;4.55;2.17;;;;;;;-0.54;60.98;101603.05;1780361;79;20954;-68
2022/12/01 03:49:37;;;;;;;3.40;1.60;;;;;;;-0.54;60.91;101606.95;1783556;79;21904;-69
2022/12/01 03:52:48;;;;;;;4.62;1.95;;;;;;;-0.53;60.94;101604.77;1783609;79;21029;-68
2022/12/01 03:55:30;;;;;;;4.58;2.25;;;;;;;-0.53;60.90;101611.25;1782157;79;21045;-70
2022/12/01 03:58:06;;;;;;;3.65;1.65;;;;;;;-0.53;60.95;101619.89;1713014;82;21009;-69
2022/12/01 04:00:32;;;;;;;11.75;1.90;;;;;;;-0.53;60.85;101620.34;1726538;80;21007;-69
2022/12/01 04:03:02;;;;;;;4.55;1.80;;;;;;;-0.54;60.83;101612.13;1771725;79;21820;-70
2022/12/01 04:05:31;;;;;;;4.17;2.20;;;;;;;-0.53;60.81;101619.89;1740782;80;21026;-73
2022/12/01 04:07:58;;;;;;;5.25;1.67;;;;;;;-0.54;60.80;101618.18;1729203;80;20964;-70
2022/12/01 04:10:25;;;;;;;6.05;2.25;;;;;;;-0.55;60.82;101622.95;1754474;80;21036;-69
2022/12/01 04:12:57;;;;;;;4.60;2.20;;;;;;;-0.57;60.75;101627.31;1783761;80;21024;-72
2022/12/01 04:15:20;;;;;;;5.72;2.20;;;;;;;-0.56;60.75;101625.14;1778957;80;21752;-69
2022/12/01 04:17:46;;;;;;;3.87;1.85;;;;;;;-0.55;60.65;101630.74;1783335;79;20947;-69
2022/12/01 04:20:14;;;;;;;4.42;2.20;;;;;;;-0.55;60.61;101632.04;1739958;80;20981;-69
2022/12/01 04:22:40;;;;;;;4.05;1.85;;;;;;;-0.55;60.51;101633.78;1750659;81;21059;-70
2022/12/01 04:25:08;;;;;;;6.00;2.25;;;;;;;-0.53;60.37;101633.31;1756616;81;21031;-71
2022/12/01 04:27:35;;;;;;;3.77;1.82;;;;;;;-0.53;60.35;101634.61;1758596;80;21860;-70
2022/12/01 04:30:04;;;;;;;3.25;1.85;;;;;;;-0.54;60.29;101637.64;1809024;79;20932;-70
2022/12/01 04:32:38;;;;;;;5.70;1.95;;;;;;;-0.53;60.33;101643.25;1741799;79;21059;-70
2022/12/01 04:35:07;;;;;;;3.50;1.80;;;;;;;-0.54;60.24;101642.84;1778702;80;21098;-70
2022/12/01 04:37:33;;;;;;;4.65;2.15;;;;;;;-0.54;59.96;101635.49;1750660;79;21009;-71
2022/12/01 04:40:00;;;;;;;5.70;1.87;;;;;;;-0.53;59.91;101639.80;1744177;81;21893;-71
2022/12/01 04:42:26;;;;;;;3.35;1.72;;;;;;;-0.54;59.90;101638.95;1751928;81;20929;-71
2022/12/01 04:44:53;;;;;;;5.30;1.87;;;;;;;-0.54;59.79;101635.49;1737538;80;21021;-77
2022/12/01 04:47:19;;;;;;;4.67;2.20;;;;;;;-0.55;59.80;101643.72;1756699;80;21042;-71
2022/12/01 04:49:46;;;;;;;5.37;2.20;;;;;;;-0.56;59.81;101645.90;1759327;81;20952;-71
2022/12/01 04:52:12;;;;;;;9.28;2.02;;;;;;;-0.55;59.63;101636.38;1760628;81;21949;-71
2022/12/01 04:54:39;;;;;;;5.65;1.60;;;;;;;-0.56;59.58;101644.60;1736060;81;21047;-71
2022/12/01 04:57:05;;;;;;;4.70;1.80;;;;;;;-0.55;59.60;101635.08;1759355;80;21359;-71
2022/12/01 04:59:32;;;;;;;3.45;1.72;;;;;;;-0.54;59.59;101635.49;1760578;81;21399;-71
2022/12/01 05:01:58;;;;;;;4.95;2.00;;;;;;;-0.54;59.60;101638.95;1760115;81;21003;-70
2022/12/01 05:04:24;;;;;;;3.45;2.08;;;;;;;-0.54;59.61;101637.64;1769088;80;21920;-70
2022/12/01 05:06:54;;;;;;;4.75;1.90;;;;;;;-0.55;59.59;101640.27;1759262;80;21047;-70
2022/12/01 05:09:21;;;;;;;3.42;1.70;;;;;;;-0.55;59.69;101634.63;1759946;80;21036;-72
2022/12/01 05:11:47;;;;;;;3.62;1.85;;;;;;;-0.54;59.66;101635.05;1759808;81;21015;-71
2022/12/01 05:14:14;;;;;;;5.10;2.40;;;;;;;-0.53;59.72;101635.47;1760232;80;21395;-70
2022/12/01 05:16:40;;;;;;;5.40;2.27;;;;;;;-0.53;59.71;101631.58;1757650;81;21800;-70
2022/12/01 05:21:51;;;;;;;5.05;2.05;;;;;;;-0.51;59.63;101641.92;1750669;80;20999;-71
2022/12/01 05:24:18;;;;;;;4.45;1.80;;;;;;;-0.49;59.59;101645.36;1759470;81;21004;-71
2022/12/01 05:26:45;;;;;;;6.15;1.70;;;;;;;-0.47;59.49;101643.63;1759078;80;21087;-70
2022/12/01 05:29:11;;;;;;;3.77;1.92;;;;;;;-0.44;59.46;101644.87;1758388;80;21967;-70
2022/12/01 05:31:38;;;;;;;3.60;1.90;;;;;;;-0.42;59.39;101649.15;1759972;80;20948;-70
2022/12/01 05:34:06;;;;;;;4.03;1.72;;;;;;;-0.40;59.45;101643.93;1758269;80;21715;-71
2022/12/01 05:36:32;;;;;;;4.17;1.52;;;;;;;-0.36;59.38;101645.62;1757701;80;20929;-70
2022/12/01 05:38:59;;;;;;;4.37;1.42;;;;;;;-0.35;59.14;101639.55;1759374;80;20991;-72
2022/12/01 05:41:25;;;;;;;3.87;1.82;;;;;;;-0.33;58.99;101654.66;1749121;80;22584;-70
2022/12/01 05:43:52;;;;;;;3.58;2.00;;;;;;;-0.31;58.97;101650.30;1731653;81;21483;-70
2022/12/01 05:46:18;;;;;;;3.95;1.87;;;;;;;-0.30;58.81;101650.70;1761724;81;21038;-70
2022/12/01 05:48:46;;;;;;;5.17;2.27;;;;;;;-0.27;58.75;101651.13;1766297;81;20996;-70
2022/12/01 05:51:14;;;;;;;3.15;1.67;;;;;;;-0.25;58.74;101654.11;1765796;81;21004;-70
2022/12/01 05:53:42;;;;;;;4.62;1.70;;;;;;;-0.24;58.72;101651.93;1765889;81;21955;-71
2022/12/01 05:56:08;;;;;;;5.08;1.70;;;;;;;-0.22;58.85;101654.06;1761402;79;21099;-70
2022/12/01 05:58:35;;;;;;;3.65;1.90;;;;;;;-0.20;58.90;101650.14;1763377;79;21052;-70
2022/12/01 06:01:01;;;;;;;4.28;1.80;;;;;;;-0.18;58.98;101656.19;1764502;79;21027;-70
2022/12/01 06:03:28;;;;;;;4.25;1.85;;;;;;;-0.16;58.92;101653.98;1765531;80;20936;-69
2022/12/01 06:05:54;;;;;;;4.87;1.82;;;;;;;-0.16;58.90;101660.91;1759948;81;21798;-70
2022/12/01 06:08:21;;;;;;;3.45;2.10;;;;;;;-0.15;58.84;101662.19;1755271;79;21051;-70
2022/12/01 06:10:47;;;;;;;3.85;1.87;;;;;;;-0.15;58.89;101661.33;1735082;81;21031;-71
2022/12/01 06:13:14;;;;;;;4.55;1.72;;;;;;;-0.15;58.89;101659.59;1764628;80;21128;-70
2022/12/01 06:15:41;;;;;;;4.42;1.77;;;;;;;-0.13;58.85;101670.80;1757317;80;21067;-71
2022/12/01 06:18:07;;;;;;;4.90;1.72;;;;;;;-0.14;58.70;101663.90;1751911;81;22588;-70
2022/12/01 06:20:34;;;;;;;4.33;2.10;;;;;;;-0.13;58.55;101666.91;1765349;81;20976;-70
2022/12/01 06:23:00;;;;;;;7.65;2.00;;;;;;;-0.16;58.58;101660.91;1765997;81;21435;-71
2022/12/01 06:25:27;;;;;;;4.40;1.87;;;;;;;-0.13;58.73;101660.42;1756934;81;21000;-70
2022/12/01 06:27:57;;;;;;;3.72;1.80;;;;;;;-0.11;58.64;101662.55;1758087;80;21011;-71
2022/12/01 06:30:24;;;;;;;3.58;2.25;;;;;;;-0.10;58.65;101662.96;1760611;81;22574;-70
2022/12/01 06:32:51;;;;;;;6.15;1.95;;;;;;;-0.09;58.58;101658.21;1764732;81;21063;-70
2022/12/01 06:35:17;;;;;;;3.05;1.57;;;;;;;-0.09;58.59;101662.11;1752048;79;21003;-70
2022/12/01 06:37:45;;;;;;;4.33;1.87;;;;;;;-0.08;58.46;101658.62;1764271;80;20972;-70
2022/12/01 06:40:12;;;;;;;5.15;1.72;;;;;;;-0.10;58.17;101665.55;1765435;80;21032;-71
2022/12/01 06:42:39;;;;;;;4.30;1.90;;;;;;;-0.10;58.08;101672.05;1765354;80;21799;-73
2022/12/01 06:45:07;;;;;;;2.77;1.60;;;;;;;-0.08;58.16;101670.76;1748259;80;20968;-71
2022/12/01 06:47:33;;;;;;;2.35;1.55;;;;;;;-0.06;58.06;101668.55;1739211;82;21067;-71
2022/12/01 06:50:00;;;;;;;3.92;1.80;;;;;;;-0.04;58.11;101666.77;1741192;81;21497;-71
2022/12/01 06:52:27;;;;;;;5.00;1.70;;;;;;;0.01;58.26;101669.32;1755915;81;20968;-71
2022/12/01 06:54:53;;;;;;;7.30;1.90;;;;;;;0.04;57.92;101659.31;1766988;79;21911;-70
2022/12/01 06:57:20;;;;;;;5.30;2.00;;;;;;;0.06;58.04;101662.74;1758712;81;21023;-70
2022/12/01 06:59:46;;;;;;;5.95;1.95;;;;;;;0.10;58.04;101665.73;1742426;79;21016;-71
2022/12/01 07:02:13;;;;;;;7.08;3.77;;;;;;;0.13;57.99;101661.77;1761893;81;21004;-72
2022/12/01 07:04:39;;;;;;;4.62;2.10;;;;;;;0.13;57.88;101660.47;1768240;81;21166;-71
2022/12/01 07:07:06;;;;;;;5.28;2.22;;;;;;;0.15;57.83;101662.59;1761696;80;21872;-71
2022/12/01 07:09:33;;;;;;;5.30;1.98;;;;;;;0.19;57.80;101660.36;1757431;81;21038;-71
2022/12/01 07:12:00;;;;;;;5.47;1.85;;;;;;;0.21;57.85;101667.70;1754644;81;21071;-71
2022/12/01 07:14:26;;;;;;;3.20;1.82;;;;;;;0.24;57.81;101662.45;1778190;80;20955;-71
2022/12/01 07:16:53;;;;;;;4.28;1.90;;;;;;;0.26;57.75;101659.38;1768048;81;21055;-72
2022/12/01 07:19:20;;;;;;;3.55;1.62;;;;;;;0.28;57.73;101659.77;1758681;81;21929;-71
2022/12/01 07:21:46;;;;;;;4.90;1.72;;;;;;;0.33;57.65;101665.34;1737780;81;20996;-72
2022/12/01 07:24:13;;;;;;;4.95;2.00;;;;;;;0.33;57.29;101664.05;1736184;81;21016;-71
2022/12/01 07:26:41;;;;;;;3.40;1.90;;;;;;;0.30;56.95;101659.77;1731538;81;21004;-73
2022/12/01 07:29:09;;;;;;;4.83;2.00;;;;;;;0.31;56.94;101664.08;1768079;81;20992;-72
2022/12/01 07:31:36;;;;;;;3.60;2.08;;;;;;;0.33;57.09;101660.15;1763345;79;21403;-79
2022/12/01 07:34:03;;;;;;;4.72;2.17;;;;;;;0.35;57.03;101666.17;1753490;79;21008;-72
2022/12/01 07:36:30;;;;;;;6.00;2.37;;;;;;;0.35;56.96;101660.53;1762559;81;21055;-72
2022/12/01 07:38:56;;;;;;;3.33;1.80;;;;;;;0.37;57.02;101657.90;1744318;81;21007;-72
2022/12/01 07:41:24;;;;;;;6.08;2.05;;;;;;;0.41;57.02;101661.73;1750095;81;36420;-73
2022/12/01 07:43:50;;;;;;;6.50;2.25;;;;;;;0.42;57.05;101657.39;1768286;79;21895;-70
2022/12/01 07:46:19;;;;;;;3.42;1.98;;;;;;;0.46;57.06;101659.91;1758107;81;20991;-70
2022/12/01 07:48:46;;;;;;;6.60;1.90;;;;;;;0.47;56.71;101656.86;1763618;81;20960;-69
2022/12/01 07:51:16;;;;;;;7.35;2.00;;;;;;;0.46;56.75;101659.05;1766440;81;21048;-70
2022/12/01 07:53:48;;;;;;;5.70;2.25;;;;;;;0.47;56.95;101660.31;1755811;81;21049;-72
2022/12/01 07:56:15;;;;;;;5.40;2.15;;;;;;;0.51;56.89;101657.24;1773082;80;22474;-72
2022/12/01 07:58:41;;;;;;;4.62;2.20;;;;;;;0.53;56.66;101664.13;1765928;79;21410;-71
2022/12/01 08:01:10;;;;;;;6.00;2.25;;;;;;;0.54;56.86;101659.78;1756692;80;21372;-72
2022/12/01 08:03:37;;;;;;;5.33;2.50;;;;;;;0.55;56.75;101666.25;1751475;81;20961;-71
2022/12/01 08:06:05;;;;;;;7.50;3.10;;;;;;;0.62;56.73;101658.34;1754879;80;21426;-73
2022/12/01 08:08:33;;;;;;;9.15;3.30;;;;;;;0.64;56.66;101664.37;1746513;81;21832;-72
2022/12/01 08:11:10;;;;;;;3.87;2.35;;;;;;;0.68;56.66;101671.25;1757316;81;21003;-74
2022/12/01 08:13:38;;;;;;;5.10;2.12;;;;;;;0.72;56.61;101661.20;1768835;81;21366;-72
2022/12/01 08:16:06;;;;;;;4.50;2.33;;;;;;;0.73;56.56;101665.06;1764346;81;20991;-76
2022/12/01 08:18:40;;;;;;;6.12;2.30;;;;;;;0.73;56.36;101666.81;1741047;81;21028;-72
2022/12/01 08:21:09;;;;;;;6.20;2.20;;;;;;;0.73;56.55;101662.47;1762561;79;21864;-73
2022/12/01 08:23:35;;;;;;;5.92;2.30;;;;;;;0.77;56.69;101660.66;1753227;81;21579;-73
2022/12/01 08:26:05;;;;;;;3.95;2.15;;;;;;;0.80;56.67;101656.72;1751226;81;21133;-73
2022/12/01 08:28:31;;;;;;;6.12;2.02;;;;;;;0.80;56.68;101651.07;1742927;81;21094;-73
2022/12/01 08:30:58;;;;;;;4.42;2.02;;;;;;;0.78;56.66;101653.30;1757783;81;20947;-73
2022/12/01 08:33:24;;;;;;;7.72;2.50;;;;;;;0.78;56.72;101647.65;1775034;79;21965;-73
2022/12/01 08:35:51;;;;;;;6.40;4.25;;;;;;;0.80;56.85;101643.27;1746258;80;21110;-73
2022/12/01 08:38:18;;;;;;;4.83;2.15;;;;;;;0.79;56.75;101640.26;1781618;80;20931;-73
2022/12/01 08:40:44;;;;;;;6.22;2.45;;;;;;;0.79;56.81;101642.00;1765438;80;20986;-71
2022/12/01 08:43:11;;;;;;;3.35;1.80;;;;;;;0.79;56.82;101636.36;1781243;79;21085;-72
2022/12/01 08:45:37;;;;;;;3.40;1.72;;;;;;;0.80;56.92;101637.22;1775702;80;21825;-72
2022/12/01 08:48:05;;;;;;;3.00;1.87;;;;;;;0.83;56.84;101637.14;1752580;80;21048;-74
2022/12/01 08:50:33;;;;;;;4.60;2.33;;;;;;;0.85;56.86;101632.77;1739853;81;21505;-75
2022/12/01 08:53:00;;;;;;;3.10;1.80;;;;;;;0.86;56.75;101631.88;1741275;80;21059;-73
2022/12/01 08:55:26;;;;;;;3.87;1.90;;;;;;;0.83;56.51;101631.50;1708163;81;20981;-73
2022/12/01 08:57:52;;;;;;;3.17;1.90;;;;;;;0.79;56.54;101631.60;1724902;81;22517;-72
2022/12/01 09:00:19;;;;;;;3.95;2.00;;;;;;;0.77;56.57;101624.25;1716658;81;21459;-75
2022/12/01 09:02:45;;;;;;;3.50;1.87;;;;;;;0.77;56.81;101624.25;1719521;81;21037;-74
2022/12/01 09:05:12;;;;;;;3.83;1.87;;;;;;;0.81;56.94;101622.02;1736170;81;21048;-71
2022/12/01 09:07:39;;;;;;;4.62;1.90;;;;;;;0.85;57.01;101624.96;1743338;81;21027;-71
2022/12/01 09:10:08;;;;;;;5.33;2.25;;;;;;;0.86;56.97;101623.63;1738181;81;21904;-70
2022/12/01 09:12:37;;;;;;;3.98;2.20;;;;;;;0.85;56.72;101618.46;1754621;80;21401;-69
2022/12/01 09:15:05;;;;;;;4.55;2.40;;;;;;;0.80;56.65;101617.70;1737921;82;21034;-70
2022/12/01 09:17:32;;;;;;;6.72;2.22;;;;;;;0.78;56.77;101624.25;1723176;83;21239;-75
2022/12/01 09:19:59;;;;;;;4.08;1.87;;;;;;;0.74;56.69;101613.91;1740396;81;21062;-70
2022/12/01 09:22:25;;;;;;;6.05;1.98;;;;;;;0.70;56.55;101624.83;1749825;82;22007;-70
2022/12/01 09:24:52;;;;;;;3.95;2.00;;;;;;;0.64;56.64;101627.97;1746831;81;21004;-70
2022/12/01 09:27:18;;;;;;;3.83;1.90;;;;;;;0.60;56.64;101623.73;1742006;81;21155;-69
2022/12/01 09:29:45;;;;;;;3.47;1.85;;;;;;;0.55;56.79;101631.15;1785583;80;21424;-68
2022/12/01 09:32:11;;;;;;;4.83;1.70;;;;;;;0.57;57.05;101633.27;1776667;80;21081;-70
2022/12/01 09:34:38;;;;;;;5.75;2.08;;;;;;;0.61;57.16;101622.84;1739318;81;21986;-70
2022/12/01 09:37:05;;;;;;;4.55;2.20;;;;;;;0.65;57.21;101617.54;1744405;81;21068;-71
2022/12/01 09:39:32;;;;;;;6.05;2.30;;;;;;;0.71;57.30;101610.94;1732661;81;21046;-74
2022/12/01 09:42:14;;;;;;;4.40;2.20;;;;;;;0.72;56.88;101611.80;1719145;81;21455;-68
2022/12/01 09:44:52;;;;;;;3.83;2.03;;;;;;;0.72;57.10;101608.74;1738471;81;21559;-69
2022/12/01 09:47:27;;;;;;;6.10;2.27;;;;;;;0.79;57.36;101605.59;1746597;80;21796;-70
2022/12/01 09:50:14;;;;;;;7.70;2.77;;;;;;;0.85;57.17;101608.91;1753819;80;21014;-69
2022/12/01 09:52:52;;;;;;;5.95;2.30;;;;;;;0.90;57.10;101605.38;1760979;80;21056;-76
2022/12/01 09:55:20;;;;;;;4.15;2.33;;;;;;;0.94;57.17;101604.42;1752219;81;21050;-70
2022/12/01 09:57:48;;;;;;;8.98;2.45;;;;;;;0.99;57.17;101605.20;1777523;79;20994;-70
2022/12/01 10:00:20;;;;;;;4.00;2.22;;;;;;;1.07;57.20;101617.17;1728672;81;21810;-75
2022/12/01 10:03:16;;;;;;;5.58;2.20;;;;;;;1.13;56.84;101605.31;1780416;79;21522;-73
2022/12/01 10:05:53;;;;;;;67.32;6.72;;;;;;;1.12;56.44;101602.75;1743913;80;21436;-76
2022/12/01 10:08:24;;;;;;;12.37;3.37;;;;;;;1.14;56.71;101592.71;1741253;80;21047;-74
2022/12/01 10:10:53;;;;;;;5.78;2.47;;;;;;;1.18;56.82;101597.42;1756305;80;20948;-79
2022/12/01 10:13:23;;;;;;;5.00;2.72;;;;;;;1.20;56.71;101596.95;1784352;79;21940;-75
2022/12/01 10:16:04;;;;;;;4.00;2.47;;;;;;;1.17;56.53;101587.91;1742916;80;21396;-76
2022/12/01 10:19:06;;;;;;;7.30;2.60;;;;;;;1.19;56.55;101588.73;1747026;81;21060;-78
2022/12/01 10:21:58;;;;;;;4.83;2.35;;;;;;;1.21;56.33;101587.39;1733655;80;20995;-74
2022/12/01 10:24:33;;;;;;;3.72;2.02;;;;;;;1.14;56.27;101593.16;1746474;80;21428;-71
2022/12/01 10:27:27;;;;;;;8.50;2.05;;;;;;;1.10;56.20;101600.18;1769754;79;21756;-78
2022/12/01 10:30:17;;;;;;;3.65;2.17;;;;;;;1.04;56.28;101600.30;1758500;80;21080;-73
2022/12/01 10:33:04;;;;;;;3.92;2.15;;;;;;;1.04;56.58;101597.70;1699937;81;21130;-68
2022/12/01 10:35:39;;;;;;;4.20;2.17;;;;;;;1.07;56.66;101596.36;1721873;79;21167;-71
2022/12/01 10:38:05;;;;;;;7.03;2.33;;;;;;;1.08;56.73;101586.36;1749120;80;21064;-71
2022/12/01 10:40:38;;;;;;;5.83;2.52;;;;;;;1.10;56.78;101591.08;1742068;81;21840;-70
2022/12/01 10:43:09;;;;;;;3.95;2.10;;;;;;;1.12;56.71;101587.98;1747421;80;21000;-76
2022/12/01 10:45:43;;;;;;;3.80;2.17;;;;;;;1.14;56.65;101587.95;1747299;80;21102;-75
2022/12/01 10:48:19;;;;;;;3.87;2.15;;;;;;;1.11;56.48;101590.19;1749334;80;21000;-74
2022/12/01 10:50:55;;;;;;;4.17;2.33;;;;;;;1.09;56.46;101589.36;1744134;80;21367;-74
2022/12/01 10:53:35;;;;;;;7.78;2.58;;;;;;;1.04;56.26;101592.49;1747776;80;21875;-73
2022/12/01 10:56:13;;;;;;;7.47;2.27;;;;;;;0.98;56.33;101593.94;1744675;81;21075;-71
2022/12/01 10:58:57;;;;;;;12.05;2.22;;;;;;;0.94;56.41;101595.31;1730921;81;21453;-73
2022/12/01 11:01:30;;;;;;;5.47;2.35;;;;;;;0.92;56.70;101591.89;1743543;80;21545;-74
2022/12/01 11:04:09;;;;;;;3.75;1.92;;;;;;;0.93;56.78;101589.70;1762909;79;21693;-75
2022/12/01 11:06:35;;;;;;;4.05;2.12;;;;;;;0.95;56.98;101588.78;1728257;81;22910;-73
2022/12/01 11:09:06;;;;;;;5.62;2.15;;;;;;;0.99;57.12;101587.84;1764668;81;21548;-72
2022/12/01 11:11:40;;;;;;;7.00;2.35;;;;;;;1.04;57.26;101583.83;1754935;81;21044;-74
2022/12/01 11:14:23;;;;;;;4.17;2.12;;;;;;;1.09;57.13;101584.61;1754400;81;20968;-73
2022/12/01 11:16:52;;;;;;;9.13;2.47;;;;;;;1.11;57.02;101582.83;1748436;80;21025;-74
2022/12/01 11:19:32;;;;;;;4.42;1.90;;;;;;;1.11;56.94;101579.77;1715931;82;21911;-73
2022/12/01 11:22:24;;;;;;;6.40;2.30;;;;;;;1.10;56.75;101572.01;1732587;81;20955;-74
2022/12/01 11:24:59;;;;;;;7.22;2.00;;;;;;;1.09;56.93;101572.45;1743804;81;21017;-73
2022/12/01 11:27:36;;;;;;;128.25;9.63;;;;;;;1.10;57.01;101569.41;1765201;81;20995;-73
2022/12/01 11:30:08;;;;;;;5.47;2.50;;;;;;;1.13;57.11;101573.23;1774214;80;21149;-75
2022/12/01 11:32:37;;;;;;;8.03;1.70;;;;;;;1.14;56.98;101566.69;1742093;81;21853;-76
2022/12/01 11:35:17;;;;;;;5.17;1.95;;;;;;;1.17;56.86;101571.44;1758531;81;21241;-75
2022/12/01 11:37:56;;;;;;;7.17;2.15;;;;;;;1.19;56.79;101571.81;1729295;80;21511;-75
2022/12/01 11:40:29;;;;;;;4.30;2.08;;;;;;;1.21;56.31;101575.67;1767270;81;21043;-72
2022/12/01 11:42:58;;;;;;;5.00;2.20;;;;;;;1.21;56.40;101570.47;1781641;80;21049;-74
2022/12/01 11:45:33;;;;;;;5.83;2.15;;;;;;;1.22;56.37;101573.03;1777444;79;21916;-73
2022/12/01 11:48:09;;;;;;;9.63;2.40;;;;;;;1.21;56.29;101566.57;1740685;81;21004;-72
2022/12/01 11:50:39;;;;;;;10.05;2.52;;;;;;;1.21;56.08;101565.27;1766212;80;20986;-76